New Vienna, Ohio
Current Conditions -  °F | °C
As of 11:54 AM on Wednesday 26 Nov 2014 (Local Time) from KILN Reporting Station
Overcast Overcast  
Wind Chill: 26°   Ceiling: 1100
Heat Index: 32°   Visibility: 8mi
Dew Point: 26°   Wind: 6mph
Humidity: 79%   Direction: NA
Pressure: 30.09"   Gusts: NA
Location:  39.32°N, 83.69°W
Report Text: KILN 261654Z AUTO VRB05KT 8SM BKN011 OVC028 00/M03 A3009 RMK AO2 SLP214 T00001033
Loading
Personal Weather Stations






























Interactive Weather Map New forecast layout! Learn more

10-Day Weather Forecast

Advertisements
Track Severe Weather on mobile